Carnival Splendor — 3EUS — position and weather

sailwx.info

Track history (hours):
 
Tides and Currents Weather Stations Pressure Air Temp Water Temp Dewpoint Dewpoint Depression Visibility Wind Speed Wind Dir Waves Ship Positions

Carnival Splendor

Last reported at 2015-Apr-28 03:00 UTC. Time now 2015-Apr-28 18:12 UTC.
Position N 19°24' W 075°06'.

Length 289 m; draft 8.3 m.

Type: Ship. MMSI: 372808000.

Wind from 340 at 14 knots

Waves 1.0 meters (3 feet)

Barometer 1011.0 mb
Air temperature 27.0 ° C
Visibility: greater than 10.8 NM
Dewpoint 24.0 ° C
Water temperature 28.0 ° C

Date/timePositionNaut miles runAvg speedWind from/ knotsBaromVisibWave heightAir tempDewpointWater temp
2015-Apr-28 03:00N 19°24' W 075°06'39215.7 340 / 141011.010.8 1.027.024.028.0
2015-Apr-27 02:00N 24°30' W 079°30'6919.8 240 / 111010.0 1.027.023.028.0
2015-Apr-26 22:29N 25°35' W 079°56'1314.3
2015-Apr-26 21:33N 25°46' W 080°04'5 5.2
2015-Apr-26 20:32N 25°47' W 080°10'0 0.0
2015-Apr-26 19:28N 25°47' W 080°10'0 0.0
2015-Apr-26 18:19N 25°47' W 080°10'0 0.0
2015-Apr-26 17:30N 25°47' W 080°10'0 0.0
2015-Apr-26 16:21N 25°47' W 080°10'0 0.0
2015-Apr-26 15:33N 25°47' W 080°10'0 0.0
2015-Apr-26 14:08N 25°47' W 080°10'0 0.0
2015-Apr-26 13:32N 25°47' W 080°10'0 0.0
2015-Apr-26 12:07N 25°47' W 080°10'0 0.0
2015-Apr-26 11:14N 25°47' W 080°10'2 3.3
2015-Apr-26 10:33N 25°46' W 080°08'8 8.5
2015-Apr-26 09:33N 25°44' W 079°59'1211.8
2015-Apr-26 08:33N 25°32' W 079°57'1515.0
2015-Apr-26 07:33N 25°17' W 079°57'1514.6
2015-Apr-26 06:33N 25°03' W 080°02'1616.0
2015-Apr-26 05:33N 24°50' W 080°12'1919.0
2015-Apr-26 04:33N 24°34' W 080°24'2119.0
2015-Apr-26 03:27N 24°18' W 080°39'1718.9
2015-Apr-26 02:33N 24°08' W 080°53'1918.7
2015-Apr-26 01:33N 23°56' W 081°09'1918.4
2015-Apr-26 00:33N 23°47' W 081°27'1818.1
2015-Apr-25 23:33N 23°42' W 081°46'1818.4
2015-Apr-25 22:33N 23°37' W 082°05'1919.2
2015-Apr-25 21:33N 23°31' W 082°25'336 7.7
2015-Apr-24 02:00N 18°00' W 083°24'253 4.9 120 / 131014.010.8 1.027.023.028.0
2015-Apr-21 22:12N 20°26' W 087°02'4 6.0
2015-Apr-21 21:32N 20°29' W 086°59'0 0.1
2015-Apr-21 20:31N 20°29' W 086°59'94 5.7
2015-Apr-21 04:00N 21°36' W 085°48'35014.6 140 / 201013.010.8 2.027.023.027.0
2015-Apr-20 04:00N 24°30' W 080°18'   140 / 221014.027.0 26.022.027.0
Track history (hours):
 
Tides and Currents Weather Stations Pressure Air Temp Water Temp Dewpoint Dewpoint Depression Visibility Wind Speed Wind Dir Waves Ship Positions

Carnival Splendor

Last reported at 2015-Apr-28 03:00 UTC. Time now 2015-Apr-28 18:12 UTC.
Position N 19°24' W 075°06'.

Length 289 m; draft 8.3 m.

Type: Ship. MMSI: 372808000.

Wind from 340 at 14 knots

Waves 1.0 meters (3 feet)

Barometer 1011.0 mb
Air temperature 27.0 ° C
Visibility: greater than 10.8 NM
Dewpoint 24.0 ° C
Water temperature 28.0 ° C

Date/timePositionNaut miles runAvg speedWind from/ knotsBaromVisibWave heightAir tempDewpointWater temp
2015-Apr-28 03:00N 19°24' W 075°06'39215.7 340 / 141011.010.8 1.027.024.028.0
2015-Apr-27 02:00N 24°30' W 079°30'6919.8 240 / 111010.0 1.027.023.028.0
2015-Apr-26 22:29N 25°35' W 079°56'1314.3
2015-Apr-26 21:33N 25°46' W 080°04'5 5.2
2015-Apr-26 20:32N 25°47' W 080°10'0 0.0
2015-Apr-26 19:28N 25°47' W 080°10'0 0.0
2015-Apr-26 18:19N 25°47' W 080°10'0 0.0
2015-Apr-26 17:30N 25°47' W 080°10'0 0.0
2015-Apr-26 16:21N 25°47' W 080°10'0 0.0
2015-Apr-26 15:33N 25°47' W 080°10'0 0.0
2015-Apr-26 14:08N 25°47' W 080°10'0 0.0
2015-Apr-26 13:32N 25°47' W 080°10'0 0.0
2015-Apr-26 12:07N 25°47' W 080°10'0 0.0
2015-Apr-26 11:14N 25°47' W 080°10'2 3.3
2015-Apr-26 10:33N 25°46' W 080°08'8 8.5
2015-Apr-26 09:33N 25°44' W 079°59'1211.8
2015-Apr-26 08:33N 25°32' W 079°57'1515.0
2015-Apr-26 07:33N 25°17' W 079°57'1514.6
2015-Apr-26 06:33N 25°03' W 080°02'1616.0
2015-Apr-26 05:33N 24°50' W 080°12'1919.0
2015-Apr-26 04:33N 24°34' W 080°24'2119.0
2015-Apr-26 03:27N 24°18' W 080°39'1718.9
2015-Apr-26 02:33N 24°08' W 080°53'1918.7
2015-Apr-26 01:33N 23°56' W 081°09'1918.4
2015-Apr-26 00:33N 23°47' W 081°27'1818.1
2015-Apr-25 23:33N 23°42' W 081°46'1818.4
2015-Apr-25 22:33N 23°37' W 082°05'1919.2
2015-Apr-25 21:33N 23°31' W 082°25'336 7.7
2015-Apr-24 02:00N 18°00' W 083°24'253 4.9 120 / 131014.010.8 1.027.023.028.0
2015-Apr-21 22:12N 20°26' W 087°02'4 6.0
2015-Apr-21 21:32N 20°29' W 086°59'0 0.1
2015-Apr-21 20:31N 20°29' W 086°59'94 5.7
2015-Apr-21 04:00N 21°36' W 085°48'35014.6 140 / 201013.010.8 2.027.023.027.0
2015-Apr-20 04:00N 24°30' W 080°18'   140 / 221014.027.0 26.022.027.0

Dump ship's entire track history